Time;durP1;ratioP1;P1;durP2;ratioP2;P2;SDS_P1;SDS_P2;PMS_P1;PMS_P2;Temp;Humidity;BMP_temperature;BMP_pressure;BME280_temperature;BME280_humidity;BME280_pressure;Samples;Min_cycle;Max_cycle;Signal;HPM_P1;HPM_P2
2021/09/29 00:00:14;;;;;;;25.80;17.30;;;;;;;15.30;95.06;100766.52;2712295;88;20982;-62
2021/09/29 00:04:18;;;;;;;23.07;18.02;;;;;;;15.22;95.02;100760.55;2759316;86;21001;-62
2021/09/29 00:08:19;;;;;;;26.10;18.95;;;;;;;15.17;95.29;100763.69;2712625;88;20947;-62
2021/09/29 00:12:23;;;;;;;17.98;16.02;;;;;;;15.08;95.51;100757.83;2759485;86;21020;-62
2021/09/29 00:16:25;;;;;;;23.60;18.07;;;;;;;15.04;95.63;100756.44;2712564;88;21010;-61
2021/09/29 00:20:31;;;;;;;21.10;16.62;;;;;;;14.99;95.66;100749.68;2759434;86;21041;-62
2021/09/29 00:24:38;;;;;;;28.50;16.57;;;;;;;14.99;95.45;100750.16;2712843;88;20950;-62
2021/09/29 00:28:39;;;;;;;21.52;15.23;;;;;;;15.00;95.13;100751.84;2761594;86;21047;-63
2021/09/29 00:32:42;;;;;;;18.05;15.83;;;;;;;14.98;94.86;100740.44;2721805;87;20984;-62
2021/09/29 00:36:46;;;;;;;24.10;16.15;;;;;;;14.91;94.86;100744.17;2769277;86;20988;-62
2021/09/29 00:40:52;;;;;;;31.00;17.57;;;;;;;14.87;94.87;100740.61;2769140;86;21011;-62
2021/09/29 00:44:51;;;;;;;19.30;17.23;;;;;;;14.82;94.85;100736.50;2770003;86;21004;-64
2021/09/29 00:48:53;;;;;;;28.40;17.77;;;;;;;14.76;95.01;100740.27;2770380;86;21009;-63
2021/09/29 00:52:56;;;;;;;21.48;16.65;;;;;;;14.69;95.18;100739.95;2769319;85;21061;-62
2021/09/29 00:57:16;;;;;;;24.00;18.65;;;;;;;14.67;95.35;100736.07;2743491;86;20996;-63
2021/09/29 01:01:17;;;;;;;23.67;20.12;;;;;;;14.65;95.18;100731.86;2824423;83;21018;-63
2021/09/29 01:05:19;;;;;;;21.90;17.55;;;;;;;14.62;95.07;100730.78;2858091;83;21011;-63
2021/09/29 01:09:48;;;;;;;24.65;17.70;;;;;;;14.58;94.91;100726.22;2849796;83;21097;-62
2021/09/29 01:14:20;;;;;;;25.55;17.60;;;;;;;14.55;94.85;100721.16;2816648;84;21370;-62
2021/09/29 01:18:24;;;;;;;20.57;17.17;;;;;;;14.49;94.68;100721.70;2817162;84;21007;-62
2021/09/29 01:23:22;;;;;;;24.77;18.40;;;;;;;14.37;94.86;100720.52;2771566;84;21055;-63
2021/09/29 01:27:24;;;;;;;29.82;19.62;;;;;;;14.32;95.24;100717.39;2813687;84;21030;-62
2021/09/29 01:31:26;;;;;;;28.35;21.90;;;;;;;14.29;95.20;100710.98;2837879;84;21043;-62
2021/09/29 01:35:28;;;;;;;26.23;18.87;;;;;;;14.29;95.28;100708.31;2805438;85;21013;-63
2021/09/29 01:40:17;;;;;;;23.20;19.37;;;;;;;14.28;95.21;100701.27;2810777;85;20993;-63
2021/09/29 01:44:18;;;;;;;23.22;17.52;;;;;;;14.31;95.10;100700.98;2810724;85;21024;-62
2021/09/29 01:48:20;;;;;;;23.47;18.05;;;;;;;14.27;94.77;100704.93;2810883;85;21017;-62
2021/09/29 01:52:23;;;;;;;22.65;18.67;;;;;;;14.17;94.92;100703.58;2810605;85;20969;-63
2021/09/29 01:56:45;;;;;;;25.30;18.15;;;;;;;14.14;95.17;100710.05;2810661;85;20970;-62
2021/09/29 02:00:47;;;;;;;31.27;23.12;;;;;;;14.10;95.21;100705.97;2718271;87;20993;-62
2021/09/29 02:05:26;;;;;;;22.58;18.50;;;;;;;14.12;95.19;100710.69;2718534;87;21029;-64
2021/09/29 02:09:29;;;;;;;33.08;24.70;;;;;;;14.09;94.80;100706.95;2718299;87;20981;-63
2021/09/29 02:13:31;;;;;;;26.00;21.68;;;;;;;14.02;94.95;100704.48;2752828;86;20964;-62
2021/09/29 02:17:33;;;;;;;23.55;19.65;;;;;;;13.97;95.14;100695.53;2801294;85;21024;-63
2021/09/29 02:21:35;;;;;;;28.35;19.02;;;;;;;13.95;95.27;100694.83;2783707;85;21042;-62
2021/09/29 02:25:46;;;;;;;26.85;19.50;;;;;;;13.98;95.14;100695.88;2763250;86;21117;-62
2021/09/29 02:29:47;;;;;;;27.75;19.92;;;;;;;13.95;94.92;100688.62;2756523;86;20957;-63
2021/09/29 02:33:49;;;;;;;28.27;20.27;;;;;;;13.95;94.87;100685.47;2746205;87;21025;-63
2021/09/29 02:38:09;;;;;;;25.12;18.55;;;;;;;13.96;94.49;100691.68;2746267;87;20977;-62
2021/09/29 02:42:11;;;;;;;27.35;21.42;;;;;;;13.85;94.22;100697.96;2746248;87;20993;-63
2021/09/29 02:46:22;;;;;;;27.55;21.52;;;;;;;13.74;94.73;100698.92;2746124;87;20930;-63
2021/09/29 02:50:24;;;;;;;31.90;20.82;;;;;;;13.66;95.12;100697.42;2746354;87;20977;-63
2021/09/29 02:54:34;;;;;;;23.35;19.48;;;;;;;13.60;95.20;100699.32;2746298;87;20977;-63
2021/09/29 02:58:36;;;;;;;31.75;21.70;;;;;;;13.64;95.42;100692.72;2746194;87;21029;-63
2021/09/29 03:02:38;;;;;;;30.68;21.65;;;;;;;13.65;95.19;100687.72;2746518;85;20988;-62
2021/09/29 03:06:40;;;;;;;41.35;24.75;;;;;;;13.63;94.78;100687.84;2745184;87;21012;-63
2021/09/29 03:10:43;;;;;;;33.23;24.65;;;;;;;13.62;94.53;100683.48;2744030;87;21020;-62
2021/09/29 03:14:45;;;;;;;24.07;20.70;;;;;;;13.48;94.43;100691.39;2754530;83;21079;-63
2021/09/29 03:18:49;;;;;;;37.40;24.12;;;;;;;13.34;94.81;100694.38;2809319;84;20977;-62
2021/09/29 03:22:52;;;;;;;26.50;21.48;;;;;;;13.19;95.29;100692.09;2808643;85;20980;-63
2021/09/29 03:26:54;;;;;;;32.63;22.07;;;;;;;13.10;95.80;100688.39;2800819;85;21003;-62
2021/09/29 03:30:57;;;;;;;29.92;23.35;;;;;;;13.05;95.97;100691.09;2810730;84;21034;-62
2021/09/29 03:34:59;;;;;;;31.27;22.27;;;;;;;13.04;96.05;100682.73;2760234;86;21042;-62
2021/09/29 03:39:03;;;;;;;31.40;21.80;;;;;;;13.05;95.81;100684.41;2757888;86;20990;-62
2021/09/29 03:43:05;;;;;;;33.75;24.25;;;;;;;13.06;95.79;100678.92;2757952;86;20975;-62
2021/09/29 03:47:07;;;;;;;32.78;22.67;;;;;;;13.05;95.20;100667.88;2757974;86;21031;-62
2021/09/29 03:51:08;;;;;;;34.08;23.60;;;;;;;12.96;95.20;100656.17;2757981;86;21011;-63
2021/09/29 03:55:14;;;;;;;31.33;22.82;;;;;;;12.89;95.52;100659.03;2757851;86;20995;-62
2021/09/29 03:59:15;;;;;;;28.53;21.37;;;;;;;12.84;95.58;100666.09;2758016;86;20971;-62
2021/09/29 04:03:17;;;;;;;29.87;22.93;;;;;;;12.83;95.58;100663.06;2794820;85;21053;-62
2021/09/29 04:07:18;;;;;;;28.50;21.75;;;;;;;12.77;95.68;100664.93;2851713;83;20960;-62
2021/09/29 04:11:20;;;;;;;34.50;25.12;;;;;;;12.75;95.78;100664.69;2801475;85;21035;-62
2021/09/29 04:15:22;;;;;;;33.10;20.70;;;;;;;12.71;95.70;100662.29;2851167;83;21000;-62
2021/09/29 04:19:24;;;;;;;30.68;20.60;;;;;;;12.65;95.72;100661.48;2813831;83;21023;-62
2021/09/29 04:23:35;;;;;;;30.05;22.00;;;;;;;12.61;95.79;100659.20;2817104;83;20981;-61
2021/09/29 04:27:36;;;;;;;25.97;19.98;;;;;;;12.57;95.85;100655.94;2825216;84;20990;-62
2021/09/29 04:31:44;;;;;;;30.75;22.73;;;;;;;12.55;95.77;100661.89;2849746;83;21067;-62
2021/09/29 04:35:46;;;;;;;31.48;23.42;;;;;;;12.53;95.79;100656.70;2850789;83;21032;-63
2021/09/29 04:39:47;;;;;;;32.35;20.65;;;;;;;12.54;95.74;100652.20;2824895;84;21019;-63
2021/09/29 04:43:49;;;;;;;27.37;20.77;;;;;;;12.54;95.29;100660.20;2835928;83;20937;-63
2021/09/29 04:48:08;;;;;;;29.50;22.50;;;;;;;12.51;95.32;100661.33;2850054;83;20991;-64
2021/09/29 04:52:10;;;;;;;21.57;18.82;;;;;;;12.48;95.10;100653.59;2900899;82;20995;-64
2021/09/29 04:56:12;;;;;;;22.62;19.92;;;;;;;12.43;94.91;100661.97;2900938;81;20979;-63
2021/09/29 05:00:15;;;;;;;27.42;21.85;;;;;;;12.37;94.85;100668.30;2900706;82;20971;-63
2021/09/29 05:04:17;;;;;;;19.67;16.82;;;;;;;12.33;95.00;100675.70;2900864;82;20991;-64
2021/09/29 05:08:25;;;;;;;22.62;18.02;;;;;;;12.33;95.13;100678.37;2900747;82;20991;-63
2021/09/29 05:12:32;;;;;;;25.40;19.37;;;;;;;12.38;94.76;100672.19;2900927;81;21050;-63
2021/09/29 05:16:36;;;;;;;30.55;20.60;;;;;;;12.45;94.55;100663.66;2900975;80;20971;-63
2021/09/29 05:20:49;;;;;;;25.65;19.50;;;;;;;12.51;94.36;100665.80;2900815;82;20924;-63
2021/09/29 05:24:58;;;;;;;29.00;19.62;;;;;;;12.72;94.03;100661.81;2900767;82;21003;-64
2021/09/29 05:29:02;;;;;;;21.52;16.57;;;;;;;12.91;92.82;100665.58;2900099;81;20996;-63
2021/09/29 05:33:06;;;;;;;19.87;16.85;;;;;;;13.05;92.02;100671.06;2900833;82;20960;-63
2021/09/29 05:37:08;;;;;;;22.77;16.27;;;;;;;13.12;91.01;100670.87;2900773;81;20975;-64
2021/09/29 05:41:10;;;;;;;24.37;20.32;;;;;;;13.21;90.57;100678.11;2900850;81;20991;-64
2021/09/29 05:45:12;;;;;;;24.77;22.02;;;;;;;13.14;90.09;100679.60;2900985;81;20987;-63
2021/09/29 05:49:21;;;;;;;20.00;17.02;;;;;;;13.06;90.28;100672.25;2900875;81;21015;-64
2021/09/29 05:53:22;;;;;;;22.13;17.30;;;;;;;13.03;90.10;100672.52;2900685;82;20963;-63
2021/09/29 05:57:24;;;;;;;16.85;13.43;;;;;;;12.89;90.09;100676.38;2900786;81;21035;-63
2021/09/29 06:01:26;;;;;;;22.70;18.52;;;;;;;12.79;90.70;100668.81;2900732;81;21010;-63
2021/09/29 06:05:28;;;;;;;26.82;18.10;;;;;;;12.77;90.99;100668.08;2900890;81;20956;-64
2021/09/29 06:09:29;;;;;;;25.17;16.25;;;;;;;12.77;91.37;100657.39;2900798;82;20951;-63
2021/09/29 06:13:31;;;;;;;19.48;15.65;;;;;;;12.83;90.79;100652.89;2900793;81;21014;-63
2021/09/29 06:21:54;;;;;;;20.97;16.67;;;;;;;12.87;90.96;100650.31;2822195;84;20971;-63
2021/09/29 06:26:19;;;;;;;25.23;18.25;;;;;;;12.85;90.38;100647.75;2822536;84;20959;-63
2021/09/29 06:30:21;;;;;;;20.37;14.55;;;;;;;12.88;90.92;100651.16;2822257;84;20951;-63
2021/09/29 06:34:24;;;;;;;18.67;15.72;;;;;;;12.91;90.72;100647.72;2822723;84;20966;-63
2021/09/29 06:38:26;;;;;;;23.47;15.30;;;;;;;12.97;90.72;100649.88;2822801;84;20966;-64
2021/09/29 06:42:31;;;;;;;19.45;13.83;;;;;;;13.04;90.68;100647.50;2822713;84;21453;-63
2021/09/29 06:46:33;;;;;;;15.95;13.68;;;;;;;13.19;90.75;100641.81;2823043;83;20982;-63
2021/09/29 06:51:00;;;;;;;15.93;14.03;;;;;;;13.28;89.91;100636.51;2822731;84;20943;-63
2021/09/29 06:55:03;;;;;;;18.02;13.95;;;;;;;13.36;89.18;100639.84;2822788;83;20935;-64
2021/09/29 06:59:04;;;;;;;22.77;13.30;;;;;;;13.41;88.89;100634.93;2822391;84;20947;-63
2021/09/29 07:03:20;;;;;;;16.50;13.78;;;;;;;13.43;87.77;100625.48;2822554;84;20935;-63
2021/09/29 07:07:22;;;;;;;20.10;15.97;;;;;;;13.48;87.77;100629.92;2822850;84;20998;-63
2021/09/29 07:11:23;;;;;;;16.37;11.83;;;;;;;13.63;87.90;100620.19;2822285;84;21465;-64
2021/09/29 07:15:26;;;;;;;20.77;14.10;;;;;;;13.75;86.92;100617.73;2822819;84;20959;-63
2021/09/29 07:19:28;;;;;;;18.95;13.98;;;;;;;13.91;87.63;100620.36;2849431;83;20976;-64
2021/09/29 07:23:30;;;;;;;19.80;13.18;;;;;;;14.09;86.32;100625.88;2913206;82;21038;-63
2021/09/29 07:27:32;;;;;;;19.70;14.58;;;;;;;14.17;85.74;100618.48;2850304;83;20991;-63
2021/09/29 07:31:37;;;;;;;23.87;11.55;;;;;;;14.28;85.91;100616.98;2913762;82;20990;-64
2021/09/29 07:35:41;;;;;;;25.77;13.40;;;;;;;14.32;83.72;100610.36;2850499;83;20991;-63
2021/09/29 07:39:43;;;;;;;20.20;14.45;;;;;;;14.36;84.10;100611.78;2913889;82;20975;-64
2021/09/29 07:43:44;;;;;;;22.45;14.53;;;;;;;14.38;84.04;100611.14;2848073;83;21012;-64
2021/09/29 07:47:52;;;;;;;17.75;14.25;;;;;;;14.39;84.05;100614.65;2848260;83;20992;-64
2021/09/29 07:51:57;;;;;;;22.32;16.60;;;;;;;14.48;84.24;100615.14;2848143;83;20993;-64
2021/09/29 07:55:58;;;;;;;34.78;23.10;;;;;;;14.68;83.24;100609.75;2848070;83;21009;-64
2021/09/29 08:00:08;;;;;;;49.98;29.35;;;;;;;14.87;83.42;100603.52;2848153;83;21507;-64
2021/09/29 08:04:10;;;;;;;24.12;16.77;;;;;;;15.04;82.01;100613.11;2848180;83;20993;-64
2021/09/29 08:08:14;;;;;;;27.75;18.00;;;;;;;15.19;82.15;100606.28;2892248;82;20955;-64
2021/09/29 08:12:15;;;;;;;23.85;17.05;;;;;;;15.33;81.41;100600.92;2860818;82;20970;-64
2021/09/29 08:16:17;;;;;;;28.75;22.15;;;;;;;15.39;80.77;100600.31;2890509;81;21019;-64
2021/09/29 08:20:19;;;;;;;21.33;16.05;;;;;;;15.40;80.37;100595.30;2869689;82;21002;-64
2021/09/29 08:24:35;;;;;;;22.22;15.63;;;;;;;15.42;79.70;100597.33;2901045;82;20924;-63
2021/09/29 08:50:09;;;;;;;22.45;17.32;;;;;;;15.49;79.79;100568.09;2869578;82;20950;-64
2021/09/29 08:58:23;;;;;;;22.50;16.97;;;;;;;15.49;80.29;100565.92;2832280;83;21037;-64
2021/09/29 09:19:48;;;;;;;19.32;12.93;;;;;;;16.00;79.11;100538.09;2832490;84;21040;-64
2021/09/29 09:23:50;;;;;;;22.62;15.25;;;;;;;16.07;79.56;100548.54;2832352;84;21023;-65
2021/09/29 09:27:52;;;;;;;20.70;15.40;;;;;;;16.15;78.47;100541.57;2832351;84;20979;-64
2021/09/29 09:32:05;;;;;;;22.32;16.50;;;;;;;16.20;78.41;100543.28;2832482;84;20953;-64
2021/09/29 09:36:07;;;;;;;17.85;13.65;;;;;;;16.28;79.19;100539.30;2832379;83;20976;-64
2021/09/29 09:40:32;;;;;;;19.55;13.28;;;;;;;16.39;78.43;100544.91;2832438;84;21089;-65
2021/09/29 09:44:38;;;;;;;22.87;14.65;;;;;;;16.56;78.16;100538.64;2832382;84;20960;-64
2021/09/29 09:48:40;;;;;;;18.73;15.10;;;;;;;16.64;78.33;100541.87;2832085;84;20996;-64
2021/09/29 09:52:44;;;;;;;18.77;13.65;;;;;;;16.73;78.35;100521.79;2832396;84;21031;-65
2021/09/29 09:56:53;;;;;;;16.82;13.75;;;;;;;16.82;78.32;100522.16;2832258;84;21518;-63
2021/09/29 10:01:01;;;;;;;36.85;23.70;;;;;;;16.82;78.16;100527.53;2832219;84;21031;-64
2021/09/29 10:09:54;;;;;;;27.93;20.08;;;;;;;16.68;76.64;100515.03;2832345;84;21051;-64
2021/09/29 10:26:52;;;;;;;21.27;16.30;;;;;;;16.79;77.97;100495.63;2822477;83;20968;-64
2021/09/29 11:32:44;;;;;;;23.32;17.17;;;;;;;17.56;76.91;100465.08;2807132;85;20947;-64
2021/09/29 12:11:27;;;;;;;26.90;22.75;;;;;;;18.16;74.56;100437.98;2807167;85;21002;-64
2021/09/29 12:15:25;;;;;;;23.73;18.62;;;;;;;18.32;74.71;100451.41;2804163;85;21002;-65
2021/09/29 12:47:48;;;;;;;24.52;19.00;;;;;;;18.82;70.84;100440.42;3119645;74;22856;-73
2021/09/29 13:00:13;;;;;;;23.98;19.10;;;;;;;18.41;71.39;100446.84;2905036;81;21076;-66
2021/09/29 13:04:15;;;;;;;23.92;20.52;;;;;;;18.31;71.51;100447.03;2906342;82;21048;-66
2021/09/29 13:08:17;;;;;;;29.00;21.12;;;;;;;18.15;71.75;100446.55;2906378;82;20989;-67
2021/09/29 13:36:34;;;;;;;26.20;19.73;;;;;;;18.03;74.03;100454.67;2828561;83;21084;-57
2021/09/29 13:40:38;;;;;;;25.57;21.20;;;;;;;17.94;73.60;100445.73;2822484;84;21056;-57
2021/09/29 13:44:46;;;;;;;27.32;21.70;;;;;;;17.89;73.37;100440.03;2773792;83;21158;-59
2021/09/29 13:48:52;;;;;;;28.30;23.47;;;;;;;17.80;73.87;100440.03;2766286;84;21086;-57
2021/09/29 13:52:58;;;;;;;27.13;22.15;;;;;;;17.70;73.83;100440.72;2771572;85;21040;-58
2021/09/29 13:57:26;;;;;;;26.62;22.60;;;;;;;17.63;74.24;100439.70;2835641;82;21011;-59
2021/09/29 14:01:49;;;;;;;28.95;21.05;;;;;;;17.53;75.06;100435.83;2789772;83;20987;-58
2021/09/29 14:32:13;;;;;;;41.23;27.60;;;;;;;17.25;75.75;100451.77;2764083;85;21049;-59
2021/09/29 14:36:10;;;;;;;47.75;28.60;;;;;;;17.18;75.83;100458.83;2767148;84;21072;-58
2021/09/29 14:40:24;;;;;;;39.30;28.20;;;;;;;17.12;76.29;100460.84;2770249;84;21013;-58
2021/09/29 14:44:39;;;;;;;41.18;30.65;;;;;;;17.06;77.09;100466.36;2772649;84;21030;-58
2021/09/29 14:48:41;;;;;;;42.38;29.20;;;;;;;17.06;77.38;100470.87;2775963;84;20987;-60
2021/09/29 14:52:44;;;;;;;46.10;31.37;;;;;;;17.01;78.16;100468.70;2769008;84;21010;-58
2021/09/29 15:46:08;;;;;;;46.33;36.60;;;;;;;16.30;83.28;100476.08;2739895;84;21111;-59
2021/09/29 15:58:27;;;;;;;54.10;38.98;;;;;;;15.98;86.28;100485.09;2700780;87;21074;-57
2021/09/29 16:03:03;;;;;;;60.78;42.05;;;;;;;15.89;86.65;100483.33;2731686;85;21337;-58
2021/09/29 16:33:56;;;;;;;67.17;51.18;;;;;;;15.45;91.60;100511.75;2783242;84;20992;-60
2021/09/29 16:37:58;;;;;;;75.97;49.88;;;;;;;15.44;91.52;100513.27;2788101;85;21402;-59
2021/09/29 16:42:00;;;;;;;85.07;50.73;;;;;;;15.35;91.86;100511.83;2790773;85;20977;-57
2021/09/29 16:46:04;;;;;;;73.80;47.05;;;;;;;15.27;92.31;100514.44;2783652;84;21055;-57
2021/09/29 16:50:12;;;;;;;70.97;49.33;;;;;;;15.17;93.04;100513.16;2787278;85;20988;-58
2021/09/29 16:54:16;;;;;;;65.20;47.00;;;;;;;15.13;93.64;100515.77;2792747;82;22271;-58
2021/09/29 17:02:24;;;;;;;66.87;48.13;;;;;;;15.02;94.86;100520.00;2786336;84;21217;-64
2021/09/29 17:06:27;;;;;;;66.75;48.50;;;;;;;14.91;95.71;100517.86;2717592;87;21087;-60
2021/09/29 17:10:29;;;;;;;73.28;51.75;;;;;;;14.87;96.34;100512.45;2769832;85;20965;-58
2021/09/29 17:14:32;;;;;;;70.35;49.25;;;;;;;14.84;97.27;100518.11;2791851;84;21017;-58
2021/09/29 17:18:34;;;;;;;63.10;47.05;;;;;;;14.81;97.94;100521.09;2787122;85;21032;-63
2021/09/29 17:22:36;;;;;;;67.45;48.95;;;;;;;14.77;98.34;100520.53;2785019;83;21080;-62
2021/09/29 17:26:37;;;;;;;69.20;47.33;;;;;;;14.75;98.56;100529.21;2783695;84;21110;-60
2021/09/29 17:30:42;;;;;;;74.37;52.17;;;;;;;14.71;99.02;100534.00;2781948;84;21048;-59
2021/09/29 17:35:05;;;;;;;69.85;49.45;;;;;;;14.65;99.09;100537.25;2789593;83;21027;-60
2021/09/29 17:39:24;;;;;;;;;;;;;;;14.67;99.44;100545.98;2775499;83;21012;-58
2021/09/29 17:56:14;;;;;;;63.83;46.33;;;;;;;14.90;98.95;100567.05;2785043;83;21086;-59
2021/09/29 18:00:16;;;;;;;;;;;;;;;14.99;99.23;100574.22;2829616;84;20995;-58
2021/09/29 18:04:24;;;;;;;65.83;47.78;;;;;;;15.14;98.87;100581.78;2824905;83;20149;-58
2021/09/29 18:08:24;;;;;;;60.03;44.67;;;;;;;15.22;98.33;100587.70;2823433;84;21119;-62
2021/09/29 18:12:40;;;;;;;66.20;48.15;;;;;;;15.36;98.17;100593.09;2824584;84;20999;-61
2021/09/29 18:16:43;;;;;;;63.42;48.38;;;;;;;15.54;98.39;100575.69;2826458;84;21060;-60
2021/09/29 18:20:49;;;;;;;63.13;49.00;;;;;;;15.63;96.45;100569.42;2824912;84;21183;-57
2021/09/29 18:24:58;;;;;;;70.77;46.70;;;;;;;15.41;96.58;100563.98;2818724;84;21340;-62
2021/09/29 18:29:01;;;;;;;63.68;45.30;;;;;;;15.22;97.90;100548.38;2794441;83;21148;-60
2021/09/29 18:33:19;;;;;;;76.00;50.67;;;;;;;15.11;98.87;100536.50;2789696;82;21087;-59
2021/09/29 18:37:13;;;;;;;70.87;48.05;;;;;;;15.04;99.42;100554.18;2783208;85;21035;-59
2021/09/29 18:41:25;;;;;;;73.52;52.48;;;;;;;15.02;100.00;100561.52;2797623;85;20984;-58
2021/09/29 18:45:28;;;;;;;66.07;48.35;;;;;;;15.01;100.00;100553.97;2781111;85;21033;-59
2021/09/29 18:49:37;;;;;;;74.00;48.92;;;;;;;15.01;100.00;100557.16;2787673;85;21004;-59
2021/09/29 18:53:52;;;;;;;71.17;48.92;;;;;;;14.98;100.00;100559.63;2790158;84;21035;-59
2021/09/29 19:10:55;;;;;;;71.40;49.83;;;;;;;15.19;100.00;100563.41;2789917;85;21055;-58
2021/09/29 19:14:57;;;;;;;67.65;45.90;;;;;;;15.26;100.00;100559.13;2791640;84;21099;-58
2021/09/29 19:19:00;;;;;;;61.48;45.00;;;;;;;15.31;100.00;100561.85;2789421;85;21031;-61
2021/09/29 19:23:42;;;;;;;64.22;46.45;;;;;;;15.36;100.00;100560.92;2791086;85;21028;-59
2021/09/29 19:28:01;;;;;;;56.02;43.05;;;;;;;15.46;100.00;100558.19;2781315;85;21087;-59
2021/09/29 19:32:00;;;;;;;;;;;;;;;15.47;99.91;100560.70;2789276;85;21024;-58
2021/09/29 19:36:05;;;;;;;62.48;43.87;;;;;;;15.43;99.46;100570.04;2782998;84;20080;-62
2021/09/29 19:40:09;;;;;;;64.03;45.73;;;;;;;15.40;99.47;100574.36;2779907;85;21482;-62
2021/09/29 19:44:15;;;;;;;65.28;47.43;;;;;;;15.40;99.08;100572.52;2783565;85;21071;-59
2021/09/29 20:10:31;;;;;;;63.52;44.48;;;;;;;15.61;96.92;100578.61;2775622;85;20989;-61
2021/09/29 20:14:32;;;;;;;52.80;42.85;;;;;;;15.69;95.52;100588.06;2775436;85;20973;-58
2021/09/29 20:18:39;;;;;;;57.33;42.17;;;;;;;15.73;95.69;100586.78;2783611;84;20988;-58
2021/09/29 20:22:41;;;;;;;55.08;39.75;;;;;;;15.68;95.04;100590.40;2775211;85;21052;-61
2021/09/29 20:26:43;;;;;;;57.05;38.23;;;;;;;15.61;95.26;100596.03;2773729;85;20997;-62
2021/09/29 20:30:50;;;;;;;56.92;40.90;;;;;;;15.45;96.34;100597.53;2782377;84;21013;-65
2021/09/29 20:43:57;;;;;;;105.07;80.03;;;;;;;15.07;97.99;100606.98;2695050;87;21065;-62
2021/09/29 20:47:59;;;;;;;88.45;63.73;;;;;;;14.99;98.30;100616.22;2698468;87;21087;-63
2021/09/29 20:52:08;;;;;;;76.95;58.60;;;;;;;14.91;98.95;100608.09;2691879;85;21341;-63
2021/09/29 20:56:10;;;;;;;60.73;44.15;;;;;;;14.85;98.95;100610.85;2694264;85;21048;-61
2021/09/29 21:00:14;;;;;;;51.45;36.63;;;;;;;14.87;98.56;100612.05;2693522;85;21005;-61
2021/09/29 21:04:16;;;;;;;48.65;34.40;;;;;;;14.83;98.43;100608.30;2792156;82;21067;-61
2021/09/29 21:08:30;;;;;;;50.45;35.03;;;;;;;14.81;98.24;100610.29;2783058;84;21103;-61
2021/09/29 21:12:30;;;;;;;40.45;30.05;;;;;;;14.78;98.36;100609.25;2787048;85;21001;-62
2021/09/29 21:20:47;;;;;;;33.83;26.85;;;;;;;14.68;98.07;100619.13;2789145;84;21067;-63
2021/09/29 21:24:49;;;;;;;35.83;28.25;;;;;;;14.63;98.68;100628.91;2782152;85;21013;-62
2021/09/29 21:28:53;;;;;;;37.67;28.23;;;;;;;14.63;98.39;100628.91;2784614;85;20960;-62
2021/09/29 21:32:55;;;;;;;43.80;29.67;;;;;;;14.62;98.69;100641.95;2789208;85;21063;-63
2021/09/29 21:36:57;;;;;;;35.03;26.42;;;;;;;14.69;98.76;100647.08;2793442;83;20999;-62
2021/09/29 22:19:27;;;;;;;11.30;9.10;;;;;;;15.14;93.35;100697.82;2792157;85;21079;-61
2021/09/29 23:03:34;;;;;;;12.28;8.83;;;;;;;14.11;94.42;100742.43;2696424;87;21059;-61
2021/09/29 23:07:14;;;;;;;13.03;9.78;;;;;;;14.08;93.74;100749.40;2694288;85;21051;-60
2021/09/29 23:32:51;;;;;;;19.42;10.63;;;;;;;14.17;96.98;100794.55;2702047;87;21033;-61
2021/09/29 23:36:57;;;;;;;14.73;10.63;;;;;;;14.12;96.43;100794.95;2697112;87;21033;-61
2021/09/29 23:41:06;;;;;;;14.65;8.13;;;;;;;14.13;96.07;100799.82;2714412;87;21030;-61
2021/09/29 23:45:08;;;;;;;10.23;8.20;;;;;;;14.13;95.45;100800.66;2703517;87;21109;-60
2021/09/29 23:49:11;;;;;;;10.03;5.20;;;;;;;14.07;95.07;100808.41;2698468;87;21005;-61
2021/09/29 23:53:13;;;;;;;4.47;4.03;;;;;;;14.04;94.69;100812.19;2697953;87;21119;-61
2021/09/29 23:57:27;;;;;;;4.42;3.35;;;;;;;14.04;93.99;100810.84;2704456;87;21045;-61
